createdAt,value
2017-04-14T00:00:13.933Z,71.00
2017-04-14T00:01:11.690Z,71.00
2017-04-14T00:02:09.031Z,71.00
2017-04-14T00:03:06.363Z,71.40
2017-04-14T00:04:03.668Z,71.30
2017-04-14T00:05:00.990Z,71.10
2017-04-14T00:05:58.370Z,70.90
2017-04-14T00:06:55.758Z,71.00
2017-04-14T00:07:53.916Z,71.30
2017-04-14T00:08:51.214Z,71.30
2017-04-14T00:09:48.546Z,71.40
2017-04-14T00:10:45.866Z,71.70
2017-04-14T00:11:43.997Z,71.30
2017-04-14T00:12:41.509Z,71.10
2017-04-14T00:13:38.903Z,71.20
2017-04-14T00:14:37.046Z,71.30
2017-04-14T00:15:34.412Z,71.00
2017-04-14T00:16:31.781Z,70.60
2017-04-14T00:17:29.105Z,70.70
2017-04-14T00:18:27.506Z,70.70
2017-04-14T00:19:24.834Z,71.30
2017-04-14T00:20:22.990Z,71.10
2017-04-14T00:21:20.377Z,71.00
2017-04-14T00:22:17.831Z,71.10
2017-04-14T00:23:15.154Z,71.70
2017-04-14T00:24:12.666Z,71.80
2017-04-14T00:25:10.710Z,72.00
2017-04-14T00:26:08.817Z,71.90
2017-04-14T00:27:06.354Z,71.30
2017-04-14T00:28:03.672Z,71.40
2017-04-14T00:29:01.734Z,71.60
2017-04-14T00:29:59.982Z,71.20
2017-04-14T00:30:57.513Z,71.10
2017-04-14T00:31:54.878Z,71.50
2017-04-14T00:32:52.223Z,71.70
2017-04-14T00:33:49.583Z,71.90
2017-04-14T00:34:46.927Z,71.80
2017-04-14T00:35:44.508Z,71.80
2017-04-14T00:36:42.582Z,72.20
2017-04-14T00:37:39.883Z,72.10
2017-04-14T00:38:37.184Z,72.30
2017-04-14T00:39:35.218Z,72.40
2017-04-14T00:40:33.377Z,72.40
2017-04-14T00:41:30.779Z,72.40
2017-04-14T00:42:28.834Z,73.20
2017-04-14T00:43:26.902Z,73.00
2017-04-14T00:44:24.258Z,73.00
2017-04-14T00:45:21.955Z,73.20
2017-04-14T00:46:19.276Z,73.20
2017-04-14T00:47:16.673Z,72.90
2017-04-14T00:48:13.973Z,72.90
2017-04-14T00:49:11.327Z,73.00
2017-04-14T00:50:08.722Z,72.60
2017-04-14T00:51:06.062Z,72.50
2017-04-14T00:52:03.447Z,71.90
2017-04-14T00:53:01.602Z,72.30
2017-04-14T00:53:59.022Z,72.30
2017-04-14T00:54:56.422Z,72.00
2017-04-14T00:55:54.478Z,71.80
2017-04-14T00:56:51.833Z,71.70
2017-04-14T00:57:49.889Z,72.10
2017-04-14T00:58:48.055Z,72.00
2017-04-14T00:59:45.841Z,72.00
2017-04-14T01:00:43.137Z,71.80
2017-04-14T01:01:40.466Z,71.70
2017-04-14T01:02:37.792Z,71.40
2017-04-14T01:03:35.964Z,71.30
2017-04-14T01:04:33.416Z,71.20
2017-04-14T01:05:30.717Z,71.20
2017-04-14T01:06:28.039Z,71.30
2017-04-14T01:07:26.072Z,72.60
2017-04-14T01:08:24.237Z,72.30
2017-04-14T01:09:21.570Z,72.30
2017-04-14T01:10:19.027Z,72.20
2017-04-14T01:11:16.358Z,72.10
2017-04-14T01:12:13.792Z,72.30
2017-04-14T01:13:11.185Z,72.30
2017-04-14T01:14:08.518Z,72.10
2017-04-14T01:15:05.823Z,72.00
2017-04-14T01:16:03.364Z,71.90
2017-04-14T01:17:00.747Z,72.00
2017-04-14T01:17:58.051Z,72.20
2017-04-14T01:18:56.097Z,72.20
2017-04-14T01:19:53.485Z,72.20
2017-04-14T01:20:50.822Z,72.50
2017-04-14T01:21:49.191Z,72.70
2017-04-14T01:22:47.241Z,72.00
2017-04-14T01:23:45.176Z,72.10
2017-04-14T01:24:42.493Z,71.90
2017-04-14T01:25:40.586Z,72.10
2017-04-14T01:26:37.946Z,72.00
2017-04-14T01:27:35.393Z,72.00
2017-04-14T01:28:32.717Z,71.40
2017-04-14T01:29:30.022Z,71.20
2017-04-14T01:30:28.098Z,71.10
2017-04-14T01:31:26.155Z,71.50
2017-04-14T01:32:23.490Z,71.50
2017-04-14T01:33:20.887Z,71.00
2017-04-14T01:34:18.949Z,71.30
2017-04-14T01:35:16.294Z,70.70
2017-04-14T01:36:13.624Z,71.10
2017-04-14T01:37:10.984Z,70.70
2017-04-14T01:38:08.440Z,70.90
2017-04-14T01:39:05.882Z,70.70
2017-04-14T01:40:03.230Z,70.90
2017-04-14T01:41:00.529Z,70.90
2017-04-14T01:41:57.869Z,71.00
2017-04-14T01:42:55.945Z,70.60
2017-04-14T01:43:54.011Z,70.70
2017-04-14T01:44:51.416Z,70.70
2017-04-14T01:45:48.717Z,70.60
2017-04-14T01:46:46.025Z,71.20
2017-04-14T01:47:43.641Z,70.80
2017-04-14T01:48:40.962Z,70.80
2017-04-14T01:49:38.314Z,70.80
2017-04-14T01:50:35.688Z,70.90
2017-04-14T01:51:33.733Z,70.60
2017-04-14T01:52:31.936Z,70.60
2017-04-14T01:53:30.025Z,71.00
2017-04-14T01:54:27.411Z,71.00
2017-04-14T01:55:24.725Z,71.00
2017-04-14T01:56:22.129Z,70.90
2017-04-14T01:57:20.350Z,70.60
2017-04-14T01:58:17.719Z,70.60
2017-04-14T01:59:15.052Z,71.10
2017-04-14T02:00:12.395Z,70.80
2017-04-14T02:01:09.726Z,70.20
2017-04-14T02:02:07.106Z,69.80
2017-04-14T02:03:04.495Z,69.80
2017-04-14T02:04:01.813Z,70.00
2017-04-14T02:04:59.267Z,69.70
2017-04-14T02:05:56.669Z,70.70
2017-04-14T02:06:54.038Z,70.20
2017-04-14T02:07:51.457Z,70.40
2017-04-14T02:08:48.785Z,70.90
2017-04-14T02:09:46.144Z,70.80
2017-04-14T02:10:43.470Z,70.80
2017-04-14T02:11:40.942Z,70.80
2017-04-14T02:12:38.291Z,70.90
2017-04-14T02:13:36.203Z,70.60
2017-04-14T02:14:34.277Z,70.90
2017-04-14T02:15:32.122Z,70.20
2017-04-14T02:16:29.510Z,70.20
2017-04-14T02:17:27.227Z,70.00
2017-04-14T02:18:24.565Z,70.30
2017-04-14T02:19:22.150Z,70.40
2017-04-14T02:20:20.070Z,70.80
2017-04-14T02:21:17.363Z,70.90
2017-04-14T02:22:15.031Z,70.70
2017-04-14T02:23:12.374Z,70.50
2017-04-14T02:24:09.694Z,70.70
2017-04-14T02:25:07.078Z,70.60
2017-04-14T02:26:05.165Z,70.40
2017-04-14T02:27:02.583Z,70.40
2017-04-14T02:28:00.477Z,70.30
2017-04-14T02:28:57.790Z,70.70
2017-04-14T02:29:55.830Z,70.50
2017-04-14T02:30:53.967Z,70.60
2017-04-14T02:31:52.077Z,70.80
2017-04-14T02:32:50.166Z,70.80
2017-04-14T02:33:48.235Z,71.00
2017-04-14T02:34:45.591Z,71.00
2017-04-14T02:35:43.122Z,71.20
2017-04-14T02:36:40.588Z,71.40
2017-04-14T02:37:37.933Z,71.40
2017-04-14T02:38:35.238Z,71.20
2017-04-14T02:39:32.528Z,71.30
2017-04-14T02:40:29.849Z,71.10
2017-04-14T02:41:27.186Z,70.80
2017-04-14T02:42:25.254Z,70.60
2017-04-14T02:43:22.587Z,70.60
2017-04-14T02:44:20.693Z,70.70
2017-04-14T02:45:19.338Z,70.80
2017-04-14T02:46:16.662Z,70.70
2017-04-14T02:47:13.953Z,70.50
2017-04-14T02:48:12.089Z,70.40
2017-04-14T02:49:10.097Z,70.40
2017-04-14T02:50:07.458Z,70.40
2017-04-14T02:51:04.796Z,70.30
2017-04-14T02:52:02.145Z,70.30
2017-04-14T02:52:59.493Z,70.40
2017-04-14T02:53:56.881Z,70.50
2017-04-14T02:54:54.242Z,70.60
2017-04-14T02:55:51.538Z,70.30
2017-04-14T02:56:49.618Z,70.40
2017-04-14T02:57:46.921Z,70.40
2017-04-14T02:58:44.217Z,70.30
2017-04-14T02:59:41.618Z,70.50
2017-04-14T03:00:39.694Z,70.40
2017-04-14T03:01:37.075Z,70.20
2017-04-14T03:02:34.398Z,70.50
2017-04-14T03:03:31.704Z,70.50
2017-04-14T03:04:30.023Z,70.60
2017-04-14T03:05:27.939Z,70.70
2017-04-14T03:06:25.250Z,70.50
2017-04-14T03:07:22.562Z,70.40
2017-04-14T03:08:20.600Z,70.50
2017-04-14T03:09:18.659Z,70.50
2017-04-14T03:10:16.709Z,70.50
2017-04-14T03:11:14.117Z,70.40
2017-04-14T03:12:12.474Z,70.60
2017-04-14T03:13:09.807Z,70.70
2017-04-14T03:14:07.204Z,70.80
2017-04-14T03:15:04.533Z,70.90
2017-04-14T03:16:01.829Z,70.90
2017-04-14T03:16:59.990Z,71.20
2017-04-14T03:17:57.974Z,71.20
2017-04-14T03:18:55.284Z,71.00
2017-04-14T03:19:52.602Z,71.10
2017-04-14T03:20:49.926Z,71.10
2017-04-14T03:21:47.256Z,71.20
2017-04-14T03:22:44.673Z,71.40
2017-04-14T03:23:41.991Z,71.20
2017-04-14T03:24:40.067Z,71.30
2017-04-14T03:25:37.418Z,71.30
2017-04-14T03:26:34.716Z,71.30
2017-04-14T03:27:32.022Z,71.40
2017-04-14T03:28:29.413Z,71.40
2017-04-14T03:29:26.727Z,71.30
2017-04-14T03:30:24.187Z,71.10
2017-04-14T03:31:21.566Z,71.20
2017-04-14T03:32:19.853Z,71.10
2017-04-14T03:33:17.166Z,71.10
2017-04-14T03:34:15.421Z,71.00
2017-04-14T03:35:12.738Z,71.00
2017-04-14T03:36:10.045Z,71.10
2017-04-14T03:37:07.378Z,71.10
2017-04-14T03:38:05.429Z,71.10
2017-04-14T03:39:02.937Z,71.10
2017-04-14T03:40:00.305Z,71.10
2017-04-14T03:40:57.630Z,70.90
2017-04-14T03:41:56.253Z,71.10
2017-04-14T03:42:53.554Z,71.10
2017-04-14T03:43:50.874Z,71.20
2017-04-14T03:44:48.217Z,71.30
2017-04-14T03:45:45.604Z,71.30
2017-04-14T03:46:42.921Z,71.60
2017-04-14T03:47:40.240Z,71.90
2017-04-14T03:48:37.570Z,71.80
2017-04-14T03:49:34.921Z,71.70
2017-04-14T03:50:32.221Z,71.60
2017-04-14T03:51:29.638Z,71.80
2017-04-14T03:52:26.952Z,71.70
2017-04-14T03:53:24.904Z,71.70
2017-04-14T03:54:22.301Z,71.70
2017-04-14T03:55:19.601Z,71.80
2017-04-14T03:56:16.918Z,71.80
2017-04-14T03:57:15.092Z,71.70
2017-04-14T03:58:12.405Z,71.60
2017-04-14T03:59:09.718Z,71.70
2017-04-14T04:00:07.033Z,71.90
2017-04-14T04:01:04.450Z,72.10
2017-04-14T04:02:01.807Z,72.20
2017-04-14T04:02:59.198Z,72.00
2017-04-14T04:03:57.094Z,71.80
2017-04-14T04:04:54.560Z,71.60
2017-04-14T04:05:51.874Z,71.70
2017-04-14T04:06:49.199Z,71.50
2017-04-14T04:07:46.493Z,71.70
2017-04-14T04:08:43.920Z,71.70
2017-04-14T04:09:42.238Z,71.80
2017-04-14T04:10:39.554Z,71.70
2017-04-14T04:11:36.882Z,71.90
2017-04-14T04:12:34.920Z,72.10
2017-04-14T04:13:32.282Z,71.90
2017-04-14T04:14:29.682Z,72.10
2017-04-14T04:15:27.788Z,72.00
2017-04-14T04:16:25.083Z,72.00
2017-04-14T04:17:22.424Z,72.00
2017-04-14T04:18:19.744Z,72.00
2017-04-14T04:19:17.610Z,72.40
2017-04-14T04:20:14.967Z,72.30
2017-04-14T04:21:12.300Z,72.30
2017-04-14T04:22:10.185Z,72.40
2017-04-14T04:23:07.480Z,72.40
2017-04-14T04:24:04.770Z,72.60
2017-04-14T04:25:02.616Z,72.70
2017-04-14T04:26:00.691Z,72.60
2017-04-14T04:26:58.267Z,72.70
2017-04-14T04:27:56.152Z,72.80
2017-04-14T04:28:53.498Z,72.90
2017-04-14T04:29:50.837Z,72.80
2017-04-14T04:30:48.133Z,72.70
2017-04-14T04:31:51.939Z,72.90
2017-04-14T04:34:58.450Z,72.90
2017-04-14T04:35:56.251Z,72.90
2017-04-14T04:36:54.390Z,72.90
2017-04-14T04:37:51.762Z,72.90
2017-04-14T04:38:49.068Z,73.00
2017-04-14T04:39:47.226Z,72.80
2017-04-14T04:40:45.367Z,72.80
2017-04-14T04:41:42.771Z,72.90
2017-04-14T04:42:40.141Z,73.10
2017-04-14T04:43:37.461Z,73.20
2017-04-14T04:44:34.776Z,73.10
2017-04-14T04:45:32.093Z,73.10
2017-04-14T04:46:29.497Z,73.00
2017-04-14T04:47:26.822Z,73.10
2017-04-14T04:48:25.075Z,72.90
2017-04-14T04:49:22.416Z,72.90
2017-04-14T04:50:19.763Z,73.40
2017-04-14T04:51:17.093Z,73.10
2017-04-14T04:52:14.404Z,73.20
2017-04-14T04:53:12.516Z,73.30
2017-04-14T04:54:09.925Z,73.30
2017-04-14T04:55:07.357Z,73.10
2017-04-14T04:56:06.337Z,73.10
2017-04-14T04:57:03.662Z,73.20
2017-04-14T04:58:01.850Z,73.20
2017-04-14T04:58:59.955Z,73.10
2017-04-14T04:59:58.867Z,73.20
2017-04-14T05:00:56.988Z,73.10
2017-04-14T05:01:55.815Z,73.10
2017-04-14T05:02:53.099Z,73.10
2017-04-14T05:03:50.422Z,73.10
2017-04-14T05:04:47.864Z,73.20
2017-04-14T05:05:45.279Z,73.00
2017-04-14T05:06:42.583Z,72.60
2017-04-14T05:07:40.635Z,72.60
2017-04-14T05:08:37.955Z,72.60
2017-04-14T05:09:35.300Z,72.60
2017-04-14T05:10:32.630Z,72.60
2017-04-14T05:11:31.303Z,72.80
2017-04-14T05:12:28.730Z,72.70
2017-04-14T05:13:26.046Z,72.80
2017-04-14T05:14:24.094Z,72.80
2017-04-14T05:15:22.117Z,72.80
2017-04-14T05:16:19.449Z,73.00
2017-04-14T05:17:16.924Z,72.90
2017-04-14T05:18:14.226Z,73.10
2017-04-14T05:19:11.615Z,73.20
2017-04-14T05:20:09.738Z,73.70
2017-04-14T05:21:07.960Z,73.40
2017-04-14T05:22:05.386Z,73.40
2017-04-14T05:23:02.911Z,73.20
2017-04-14T05:24:00.378Z,73.10
2017-04-14T05:24:57.705Z,72.90
2017-04-14T05:25:55.031Z,73.00
2017-04-14T05:26:52.362Z,72.90
2017-04-14T05:27:49.671Z,73.00
2017-04-14T05:28:47.106Z,73.10
2017-04-14T05:29:44.435Z,73.10
2017-04-14T05:30:41.828Z,73.00
2017-04-14T05:31:39.174Z,73.10
2017-04-14T05:32:36.507Z,73.10
2017-04-14T05:33:33.878Z,73.00
2017-04-14T05:34:31.290Z,72.80
2017-04-14T05:35:28.604Z,72.60
2017-04-14T05:36:25.923Z,72.80
2017-04-14T05:37:23.217Z,72.80
2017-04-14T05:38:21.297Z,72.60
2017-04-14T05:39:19.402Z,72.80
2017-04-14T05:40:17.476Z,72.80
2017-04-14T05:41:14.851Z,72.80
2017-04-14T05:42:12.245Z,72.80
2017-04-14T05:43:09.584Z,73.00
2017-04-14T05:44:08.370Z,73.00
2017-04-14T05:45:05.668Z,72.90
2017-04-14T05:46:03.108Z,73.00
2017-04-14T05:47:00.405Z,73.10
2017-04-14T05:47:57.733Z,72.90
2017-04-14T05:48:55.036Z,73.00
2017-04-14T05:49:52.371Z,72.80
2017-04-14T05:50:49.670Z,72.70
2017-04-14T05:51:47.736Z,73.40
2017-04-14T05:52:45.075Z,72.70
2017-04-14T05:53:42.401Z,72.70
2017-04-14T05:54:39.689Z,72.70
2017-04-14T05:55:37.060Z,72.70
2017-04-14T05:56:34.461Z,72.60
2017-04-14T05:57:33.513Z,73.10
2017-04-14T05:58:30.831Z,73.10
2017-04-14T05:59:28.263Z,73.20
2017-04-14T06:00:26.423Z,73.10
2017-04-14T06:01:23.738Z,73.00
2017-04-14T06:02:21.166Z,73.10
2017-04-14T06:03:21.315Z,73.00
2017-04-14T06:04:18.606Z,72.90
2017-04-14T06:05:15.994Z,73.00
2017-04-14T06:06:13.371Z,72.60
2017-04-14T06:07:10.692Z,72.70
2017-04-14T06:08:08.087Z,72.50
2017-04-14T06:09:05.401Z,72.20
2017-04-14T06:10:02.726Z,72.20
2017-04-14T06:11:00.070Z,72.10
2017-04-14T06:11:58.797Z,72.10
2017-04-14T06:12:56.115Z,72.10
2017-04-14T06:13:53.474Z,72.10
2017-04-14T06:14:50.815Z,72.10
2017-04-14T06:15:48.136Z,72.20
2017-04-14T06:16:45.481Z,72.00
2017-04-14T06:17:42.802Z,72.00
2017-04-14T06:18:40.132Z,71.90
2017-04-14T06:19:38.338Z,71.90
2017-04-14T06:20:36.553Z,71.70
2017-04-14T06:21:34.753Z,71.70
2017-04-14T06:22:32.840Z,71.50
2017-04-14T06:23:30.942Z,71.50
2017-04-14T06:24:29.961Z,71.70
2017-04-14T06:25:28.133Z,71.40
2017-04-14T06:26:26.182Z,71.20
2017-04-14T06:27:23.485Z,71.20
2017-04-14T06:28:20.846Z,71.30
2017-04-14T06:29:18.155Z,71.40
2017-04-14T06:30:15.556Z,71.00
2017-04-14T06:31:13.118Z,70.80
2017-04-14T06:32:11.390Z,70.40
2017-04-14T06:33:08.701Z,70.40
2017-04-14T06:34:06.791Z,70.40
2017-04-14T06:35:04.873Z,70.60
2017-04-14T06:36:02.954Z,70.30
2017-04-14T06:37:01.211Z,70.50
2017-04-14T06:37:59.323Z,70.70
2017-04-14T06:38:57.438Z,70.60
2017-04-14T06:39:55.775Z,70.70
2017-04-14T06:40:54.949Z,70.80
2017-04-14T06:41:53.138Z,71.00
2017-04-14T06:42:50.546Z,71.00
2017-04-14T06:43:47.862Z,71.10
2017-04-14T06:44:45.197Z,71.20
2017-04-14T06:45:43.249Z,71.20
2017-04-14T06:46:40.598Z,71.10
2017-04-14T06:47:37.947Z,70.80
2017-04-14T06:48:35.443Z,71.00
2017-04-14T06:49:33.369Z,71.30
2017-04-14T06:50:30.689Z,71.00
2017-04-14T06:51:28.034Z,70.80
2017-04-14T06:52:25.378Z,70.80
2017-04-14T06:53:23.565Z,70.70
2017-04-14T06:54:21.072Z,70.60
2017-04-14T06:55:18.402Z,70.80
2017-04-14T06:56:15.703Z,71.10
2017-04-14T06:57:13.756Z,70.80
2017-04-14T06:58:11.098Z,70.80
2017-04-14T06:59:08.418Z,70.90
2017-04-14T07:00:06.557Z,71.00
2017-04-14T07:01:03.984Z,71.00
2017-04-14T07:02:01.329Z,71.10
2017-04-14T07:02:59.519Z,71.20
2017-04-14T07:03:57.639Z,70.80
2017-04-14T07:04:55.735Z,71.00
2017-04-14T07:05:54.258Z,71.00
2017-04-14T07:06:53.149Z,71.00
2017-04-14T07:07:51.210Z,71.00
2017-04-14T07:08:49.330Z,71.00
2017-04-14T07:09:48.072Z,70.90
2017-04-14T07:10:46.997Z,70.90
2017-04-14T07:11:45.234Z,70.90
2017-04-14T07:12:43.660Z,71.10
2017-04-14T07:13:41.755Z,71.10
2017-04-14T07:14:40.894Z,70.90
2017-04-14T07:15:38.962Z,70.70
2017-04-14T07:16:37.048Z,70.70
2017-04-14T07:17:35.491Z,70.60
2017-04-14T07:18:33.588Z,70.60
2017-04-14T07:19:32.308Z,70.90
2017-04-14T07:20:30.390Z,70.60
2017-04-14T07:21:27.783Z,70.60
2017-04-14T07:22:25.150Z,70.60
2017-04-14T07:23:23.346Z,70.40
2017-04-14T07:24:20.667Z,70.30
2017-04-14T07:25:18.092Z,70.10
2017-04-14T07:26:17.067Z,70.20
2017-04-14T07:27:15.178Z,70.30
2017-04-14T07:28:13.198Z,70.30
2017-04-14T07:29:10.609Z,70.20
2017-04-14T07:30:08.009Z,69.80
2017-04-14T07:31:05.363Z,69.90
2017-04-14T07:32:03.824Z,69.80
2017-04-14T07:33:02.133Z,69.50
2017-04-14T07:33:59.560Z,69.00
2017-04-14T07:34:57.029Z,68.70
2017-04-14T07:35:54.351Z,69.00
2017-04-14T07:36:51.771Z,68.90
2017-04-14T07:37:49.246Z,68.90
2017-04-14T07:38:46.605Z,68.20
2017-04-14T07:39:43.953Z,68.70
2017-04-14T07:40:41.432Z,68.60
2017-04-14T07:41:39.529Z,68.90
2017-04-14T07:42:36.863Z,68.80
2017-04-14T07:43:34.218Z,68.70
2017-04-14T07:44:32.062Z,68.90
2017-04-14T07:45:30.226Z,69.00
2017-04-14T07:46:27.613Z,69.00
2017-04-14T07:47:25.943Z,68.70
2017-04-14T07:48:23.528Z,68.50
2017-04-14T07:49:21.758Z,68.40
2017-04-14T07:50:19.067Z,68.20
2017-04-14T07:51:17.110Z,68.10
2017-04-14T07:52:15.250Z,68.40
2017-04-14T07:53:13.324Z,68.20
2017-04-14T07:54:10.678Z,68.10
2017-04-14T07:55:08.178Z,68.20
2017-04-14T07:56:06.260Z,68.70
2017-04-14T07:57:04.343Z,67.80
2017-04-14T07:58:02.603Z,67.40
2017-04-14T07:59:00.809Z,67.30
2017-04-14T07:59:58.197Z,67.20
2017-04-14T08:00:56.599Z,67.20
2017-04-14T08:01:53.980Z,67.10
2017-04-14T08:02:51.298Z,67.40
2017-04-14T08:03:48.667Z,67.70
2017-04-14T08:04:46.835Z,66.70
2017-04-14T08:05:47.267Z,66.90
2017-04-14T08:06:45.403Z,67.00
2017-04-14T08:07:44.924Z,67.00
2017-04-14T08:08:43.071Z,66.70
2017-04-14T08:09:41.273Z,66.80
2017-04-14T08:10:39.463Z,67.00
2017-04-14T08:11:37.628Z,66.50
2017-04-14T08:12:36.369Z,66.60
2017-04-14T08:13:34.496Z,66.50
2017-04-14T08:14:32.594Z,66.20
2017-04-14T08:16:29.487Z,66.40
2017-04-14T08:17:27.797Z,66.50
2017-04-14T08:18:26.482Z,66.70
2017-04-14T08:19:23.853Z,66.60
2017-04-14T08:20:21.192Z,66.50
2017-04-14T08:21:19.352Z,66.00
2017-04-14T08:22:17.442Z,65.40
2017-04-14T08:23:15.179Z,65.40
2017-04-14T08:24:13.324Z,66.00
2017-04-14T08:25:10.899Z,65.90
2017-04-14T08:26:08.321Z,66.30
2017-04-14T08:27:06.802Z,65.90
2017-04-14T08:28:04.623Z,65.90
2017-04-14T08:29:02.755Z,65.60
2017-04-14T08:30:00.068Z,65.60
2017-04-14T08:30:57.395Z,64.80
2017-04-14T08:31:54.722Z,65.20
2017-04-14T08:32:52.843Z,65.00
2017-04-14T08:33:51.010Z,65.00
2017-04-14T08:34:49.065Z,65.00
2017-04-14T08:35:46.425Z,64.70
2017-04-14T08:36:44.660Z,65.30
2017-04-14T08:37:42.002Z,65.20
2017-04-14T08:38:39.414Z,65.00
2017-04-14T08:39:36.722Z,64.70
2017-04-14T08:40:34.141Z,65.00
2017-04-14T08:41:32.263Z,64.90
2017-04-14T08:42:31.318Z,64.40
2017-04-14T08:43:28.619Z,64.30
2017-04-14T08:44:26.029Z,64.30
2017-04-14T08:45:24.117Z,64.40
2017-04-14T08:46:22.209Z,63.90
2017-04-14T08:47:19.560Z,63.80
2017-04-14T08:48:16.910Z,64.00
2017-04-14T08:49:14.258Z,64.10
2017-04-14T08:50:11.717Z,64.20
2017-04-14T08:51:09.894Z,63.90
2017-04-14T08:52:07.203Z,63.90
2017-04-14T08:53:04.552Z,63.10
2017-04-14T08:54:01.943Z,63.10
2017-04-14T08:55:00.018Z,63.10
2017-04-14T08:55:58.186Z,62.60
2017-04-14T08:56:56.546Z,63.10
2017-04-14T08:57:53.875Z,63.00
2017-04-14T08:58:51.205Z,63.00
2017-04-14T08:59:49.954Z,62.90
2017-04-14T09:00:48.003Z,62.90
2017-04-14T09:01:45.478Z,62.70
2017-04-14T09:02:42.963Z,62.70
2017-04-14T09:03:41.079Z,62.50
2017-04-14T09:04:39.070Z,62.50
2017-04-14T09:05:37.759Z,62.70
2017-04-14T09:06:35.307Z,62.30
2017-04-14T09:07:33.367Z,62.30
2017-04-14T09:08:30.726Z,62.20
2017-04-14T09:09:28.141Z,62.30
2017-04-14T09:10:26.289Z,61.80
2017-04-14T09:11:23.698Z,61.80
2017-04-14T09:12:21.196Z,61.90
2017-04-14T09:13:19.280Z,62.20
2017-04-14T09:14:17.369Z,62.30
2017-04-14T09:15:16.042Z,62.80
2017-04-14T09:16:14.121Z,62.20
2017-04-14T09:17:12.295Z,62.10
2017-04-14T09:18:09.714Z,62.00
2017-04-14T09:19:07.073Z,62.00
2017-04-14T09:20:04.369Z,61.70
2017-04-14T09:21:01.803Z,62.00
2017-04-14T09:21:59.180Z,62.10
2017-04-14T09:22:56.500Z,62.10
2017-04-14T09:23:53.903Z,62.10
2017-04-14T09:24:51.229Z,62.50
2017-04-14T09:25:49.302Z,62.10
2017-04-14T09:26:47.528Z,61.80
2017-04-14T09:27:44.859Z,61.80
2017-04-14T09:28:42.925Z,61.50
2017-04-14T09:29:41.063Z,62.40
2017-04-14T09:30:38.398Z,62.20
2017-04-14T09:31:35.823Z,62.00
2017-04-14T09:32:33.927Z,62.50
2017-04-14T09:33:32.213Z,61.70
2017-04-14T09:34:29.705Z,62.00
2017-04-14T09:35:27.150Z,61.90
2017-04-14T09:36:24.462Z,61.80
2017-04-14T09:37:21.830Z,61.20
2017-04-14T09:38:20.110Z,61.70
2017-04-14T09:39:18.275Z,62.00
2017-04-14T09:40:17.138Z,61.50
2017-04-14T09:41:17.042Z,61.30
2017-04-14T09:42:15.198Z,61.00
2017-04-14T09:43:13.401Z,61.40
2017-04-14T09:44:10.720Z,61.40
2017-04-14T09:45:08.058Z,61.40
2017-04-14T09:46:05.363Z,61.50
2017-04-14T09:47:03.541Z,60.90
2017-04-14T09:48:01.611Z,60.60
2017-04-14T09:48:58.932Z,60.60
2017-04-14T09:49:56.996Z,60.80
2017-04-14T09:50:54.320Z,60.70
2017-04-14T09:51:52.396Z,60.80
2017-04-14T09:52:50.560Z,60.80
2017-04-14T09:53:47.935Z,60.90
2017-04-14T09:54:45.255Z,61.40
2017-04-14T09:55:42.660Z,60.80
2017-04-14T09:56:39.979Z,60.90
2017-04-14T09:57:37.294Z,60.30
2017-04-14T09:58:35.515Z,58.70
2017-04-14T09:59:32.834Z,58.60
2017-04-14T10:00:30.909Z,59.40
2017-04-14T10:01:28.286Z,59.40
2017-04-14T10:02:26.350Z,58.90
2017-04-14T10:03:24.391Z,57.70
2017-04-14T10:04:21.807Z,57.60
2017-04-14T10:05:19.163Z,57.70
2017-04-14T10:06:16.477Z,56.70
2017-04-14T10:07:13.794Z,57.70
2017-04-14T10:08:11.871Z,57.60
2017-04-14T10:09:09.205Z,57.40
2017-04-14T10:10:06.599Z,57.70
2017-04-14T10:11:03.942Z,57.80
2017-04-14T10:12:01.245Z,58.10
2017-04-14T10:12:58.563Z,56.70
2017-04-14T10:13:56.041Z,57.40
2017-04-14T10:14:54.289Z,57.60
2017-04-14T10:15:53.318Z,57.70
2017-04-14T10:16:50.630Z,57.70
2017-04-14T10:17:48.681Z,57.90
2017-04-14T10:18:46.042Z,57.80
2017-04-14T10:19:43.397Z,57.70
2017-04-14T10:20:41.467Z,57.10
2017-04-14T10:21:38.889Z,57.00
2017-04-14T10:22:36.986Z,56.70
2017-04-14T10:23:34.322Z,56.60
2017-04-14T10:24:33.212Z,54.50
2017-04-14T10:25:30.537Z,54.50
2017-04-14T10:26:27.886Z,53.70
2017-04-14T10:27:25.326Z,53.00
2017-04-14T10:28:23.401Z,52.80
2017-04-14T10:29:20.707Z,52.80
2017-04-14T10:30:18.182Z,53.40
2017-04-14T10:31:15.669Z,53.00
2017-04-14T10:32:12.982Z,54.00
2017-04-14T10:33:10.366Z,54.50
2017-04-14T10:34:08.430Z,55.40
2017-04-14T10:35:05.759Z,55.40
2017-04-14T10:36:03.083Z,55.40
2017-04-14T10:37:00.433Z,55.00
2017-04-14T10:37:58.382Z,55.40
2017-04-14T10:38:56.535Z,54.20
2017-04-14T10:39:53.859Z,54.00
2017-04-14T10:40:51.194Z,54.40
2017-04-14T10:41:48.546Z,54.00
2017-04-14T10:42:45.934Z,53.40
2017-04-14T10:43:44.182Z,53.80
2017-04-14T10:44:41.609Z,53.90
2017-04-14T10:45:38.930Z,54.80
2017-04-14T10:46:37.021Z,54.80
2017-04-14T10:47:34.323Z,54.70
2017-04-14T10:48:32.396Z,54.80
2017-04-14T10:49:30.494Z,54.30
2017-04-14T10:50:27.873Z,54.20
2017-04-14T10:51:25.199Z,54.60
2017-04-14T10:52:23.295Z,54.60
2017-04-14T10:53:21.353Z,54.70
2017-04-14T10:54:19.474Z,54.60
2017-04-14T10:55:16.878Z,54.50
2017-04-14T10:56:14.287Z,54.40
2017-04-14T10:57:11.635Z,55.20
2017-04-14T10:58:08.958Z,54.50
2017-04-14T10:59:06.285Z,54.10
2017-04-14T11:00:03.663Z,54.50
2017-04-14T11:01:01.366Z,55.00
2017-04-14T11:01:59.428Z,55.30
2017-04-14T11:02:57.654Z,53.40
2017-04-14T11:03:54.967Z,53.30
2017-04-14T11:04:52.298Z,53.60
2017-04-14T11:05:49.653Z,53.50
2017-04-14T11:06:46.998Z,52.70
2017-04-14T11:07:44.462Z,52.50
2017-04-14T11:08:41.786Z,52.30
2017-04-14T11:09:39.180Z,52.00
2017-04-14T11:10:36.542Z,52.30
2017-04-14T11:11:33.862Z,53.30
2017-04-14T11:12:31.222Z,52.00
2017-04-14T11:13:29.396Z,51.80
2017-04-14T11:14:28.398Z,52.00
2017-04-14T11:15:26.491Z,52.20
2017-04-14T11:16:23.802Z,52.10
2017-04-14T11:17:21.115Z,51.70
2017-04-14T11:18:18.516Z,52.20
2017-04-14T11:19:16.677Z,52.10
2017-04-14T11:20:14.017Z,52.10
2017-04-14T11:21:11.965Z,52.20
2017-04-14T11:22:09.949Z,51.90
2017-04-14T11:23:07.998Z,51.60
2017-04-14T11:24:05.319Z,51.60
2017-04-14T11:25:04.110Z,51.00
2017-04-14T11:26:01.431Z,50.90
2017-04-14T11:26:59.543Z,51.90
2017-04-14T11:27:56.922Z,51.90
2017-04-14T11:28:54.231Z,50.60
2017-04-14T11:29:53.256Z,51.10
2017-04-14T11:30:51.527Z,51.20
2017-04-14T11:31:49.566Z,51.10
2017-04-14T11:32:46.886Z,51.00
2017-04-14T11:33:44.209Z,50.80
2017-04-14T11:34:42.283Z,50.70
2017-04-14T11:35:39.617Z,50.50
2017-04-14T11:36:36.990Z,50.80
2017-04-14T11:37:34.308Z,51.60
2017-04-14T11:38:32.700Z,51.90
2017-04-14T11:39:30.081Z,51.90
2017-04-14T11:40:27.427Z,52.00
2017-04-14T11:41:25.506Z,52.10
2017-04-14T11:42:24.275Z,52.20
2017-04-14T11:43:23.970Z,51.40
2017-04-14T11:44:22.946Z,51.40
2017-04-14T11:45:21.957Z,52.20
2017-04-14T11:46:21.179Z,51.60
2017-04-14T11:47:22.438Z,51.30
2017-04-14T11:48:22.430Z,51.30
2017-04-14T11:49:22.162Z,52.40
2017-04-14T11:50:22.147Z,52.30
2017-04-14T11:51:19.519Z,52.10
2017-04-14T11:52:16.835Z,52.20
2017-04-14T11:53:15.970Z,52.00
2017-04-14T11:54:13.674Z,52.60
2017-04-14T11:55:12.497Z,52.70
2017-04-14T11:56:10.137Z,53.20
2017-04-14T11:57:07.859Z,52.70
2017-04-14T11:58:05.202Z,53.50
2017-04-14T11:59:03.517Z,49.40
2017-04-14T12:00:02.077Z,50.80
2017-04-14T12:00:59.710Z,50.80
2017-04-14T12:01:57.549Z,48.80
2017-04-14T12:02:55.235Z,48.30
2017-04-14T12:03:53.512Z,47.30
2017-04-14T12:04:51.266Z,47.20
2017-04-14T12:05:48.959Z,46.10
2017-04-14T12:06:46.798Z,46.00
2017-04-14T12:07:44.943Z,45.50
2017-04-14T12:08:42.682Z,44.80
2017-04-14T12:09:40.350Z,45.40
2017-04-14T12:10:38.267Z,45.20
2017-04-14T12:11:36.171Z,45.40
2017-04-14T12:12:33.827Z,45.30
2017-04-14T12:13:31.550Z,45.70
2017-04-14T12:14:30.295Z,45.90
2017-04-14T12:15:27.914Z,46.10
2017-04-14T12:16:25.459Z,46.40
2017-04-14T12:17:23.413Z,45.50
2017-04-14T12:18:21.976Z,45.80
2017-04-14T12:19:19.503Z,45.70
2017-04-14T12:20:17.891Z,44.70
2017-04-14T12:21:15.259Z,44.60
2017-04-14T12:22:13.932Z,46.00
2017-04-14T12:23:14.225Z,46.20
2017-04-14T12:24:12.084Z,46.20
2017-04-14T12:25:10.637Z,45.10
2017-04-14T12:26:08.146Z,45.10